Time;durP1;ratioP1;P1;durP2;ratioP2;P2;SDS_P1;SDS_P2;PMS_P1;PMS_P2;Temp;Humidity;BMP_temperature;BMP_pressure;BME280_temperature;BME280_humidity;BME280_pressure;Samples;Min_cycle;Max_cycle;Signal;HPM_P1;HPM_P2
2023/03/24 00:00:47;;;;;;;8.10;5.23;;;;;;;15.06;74.55;99597.06;5068112;28;20680;-64
2023/03/24 00:03:16;;;;;;;9.20;5.33;;;;;;;15.07;74.20;99581.88;5069744;28;20323;-64
2023/03/24 00:05:45;;;;;;;8.13;5.00;;;;;;;15.00;74.35;99584.53;5068714;28;20292;-64
2023/03/24 00:08:13;;;;;;;8.93;5.43;;;;;;;14.97;74.31;99563.56;5068624;28;20233;-64
2023/03/24 00:10:46;;;;;;;7.37;4.70;;;;;;;14.95;74.56;99562.91;5066820;28;22030;-65
2023/03/24 00:13:15;;;;;;;8.03;5.10;;;;;;;14.97;74.37;99555.53;5070658;28;21123;-65
2023/03/24 00:15:44;;;;;;;8.83;4.77;;;;;;;15.02;73.75;99552.28;5070570;28;20587;-64
2023/03/24 00:18:13;;;;;;;8.27;5.67;;;;;;;15.03;73.66;99543.25;5070142;28;20233;-63
2023/03/24 00:20:41;;;;;;;7.93;5.07;;;;;;;15.10;72.82;99533.44;5068005;28;20206;-65
2023/03/24 00:23:10;;;;;;;7.23;4.37;;;;;;;15.02;73.03;99537.09;5067819;28;20220;-64
2023/03/24 00:25:39;;;;;;;8.33;4.87;;;;;;;14.97;73.24;99528.84;5066919;28;20682;-65
2023/03/24 00:28:07;;;;;;;7.77;5.13;;;;;;;15.06;72.74;99529.50;5068871;28;20217;-66
2023/03/24 00:30:35;;;;;;;7.77;3.97;;;;;;;15.14;72.16;99529.31;5067595;28;20237;-62
2023/03/24 00:33:03;;;;;;;6.57;4.27;;;;;;;15.20;71.57;99528.53;5067925;28;20210;-64
2023/03/24 00:35:33;;;;;;;7.73;4.70;;;;;;;15.22;71.17;99531.81;5067812;28;20238;-63
2023/03/24 00:38:01;;;;;;;7.27;4.20;;;;;;;15.05;71.20;99518.00;5067503;28;20231;-64
2023/03/24 00:40:29;;;;;;;7.17;4.47;;;;;;;14.99;71.73;99515.31;5068684;28;20211;-63
2023/03/24 00:42:58;;;;;;;8.17;4.60;;;;;;;14.95;71.77;99508.75;5068495;28;20227;-65
2023/03/24 00:45:25;;;;;;;8.47;4.63;;;;;;;14.95;71.42;99509.53;5068628;28;20273;-65
2023/03/24 00:47:56;;;;;;;7.47;4.33;;;;;;;14.99;71.57;99496.63;5071178;28;20285;-64
2023/03/24 00:50:25;;;;;;;7.43;4.57;;;;;;;15.04;72.20;99481.63;5071165;28;20215;-64
2023/03/24 00:52:56;;;;;;;7.50;4.77;;;;;;;15.14;70.84;99480.44;5069181;28;20214;-62
2023/03/24 00:55:27;;;;;;;7.67;4.50;;;;;;;15.11;70.15;99478.19;5071097;28;20218;-62
2023/03/24 00:57:55;;;;;;;9.20;4.70;;;;;;;15.04;70.02;99475.47;5071515;28;20842;-63
2023/03/24 01:00:26;;;;;;;6.83;4.93;;;;;;;14.99;70.00;99461.91;5071487;28;20210;-64
2023/03/24 01:02:57;;;;;;;7.87;5.47;;;;;;;15.03;70.21;99463.19;5073791;28;20207;-63
2023/03/24 01:05:27;;;;;;;10.67;5.50;;;;;;;15.03;70.91;99469.34;5070771;28;20233;-63
2023/03/24 01:08:02;;;;;;;9.53;5.17;;;;;;;15.03;70.01;99473.84;5067048;28;20231;-64
2023/03/24 01:10:32;;;;;;;7.93;4.57;;;;;;;15.04;69.72;99467.47;5067019;28;20232;-63
2023/03/24 01:13:01;;;;;;;7.23;5.00;;;;;;;15.04;69.07;99475.47;5066557;28;20573;-63
2023/03/24 01:15:32;;;;;;;6.03;3.97;;;;;;;14.96;68.96;99481.00;5068641;28;20654;-62
2023/03/24 01:18:00;;;;;;;9.40;4.37;;;;;;;14.97;68.79;99479.97;5068027;28;20239;-64
2023/03/24 01:20:31;;;;;;;8.10;4.50;;;;;;;14.89;68.83;99470.31;5064924;28;20214;-65
2023/03/24 01:23:01;;;;;;;7.33;4.80;;;;;;;14.90;69.08;99473.78;5068117;28;20217;-64
2023/03/24 01:25:29;;;;;;;6.90;4.40;;;;;;;14.94;69.39;99475.06;5078880;28;20207;-64
2023/03/24 01:27:57;;;;;;;7.40;4.40;;;;;;;15.01;68.34;99462.53;5087896;28;20661;-64
2023/03/24 01:30:27;;;;;;;5.53;4.13;;;;;;;14.98;68.54;99460.28;5085889;28;20220;-64
2023/03/24 01:32:56;;;;;;;9.10;4.60;;;;;;;15.00;68.74;99459.06;5088613;28;20207;-64
2023/03/24 01:35:25;;;;;;;6.30;4.17;;;;;;;15.00;68.70;99450.22;5088913;28;20210;-65
2023/03/24 01:37:58;;;;;;;8.43;4.90;;;;;;;14.98;68.42;99460.28;5085775;28;20256;-63
2023/03/24 01:40:30;;;;;;;8.43;4.63;;;;;;;14.88;69.19;99465.16;5086722;28;20220;-63
2023/03/24 01:42:59;;;;;;;9.23;4.90;;;;;;;14.88;69.62;99454.47;5085688;28;20210;-64
2023/03/24 01:46:11;;;;;;;8.87;4.53;;;;;;;14.82;69.41;99460.63;5085833;28;20681;-63
2023/03/24 01:48:42;;;;;;;8.67;4.90;;;;;;;14.79;69.94;99450.34;5076549;28;20237;-63
2023/03/24 01:51:16;;;;;;;8.43;4.87;;;;;;;14.89;69.24;99450.78;5089139;28;20211;-64
2023/03/24 01:53:49;;;;;;;7.63;4.90;;;;;;;14.91;68.98;99438.06;5086189;28;21324;-65
2023/03/24 01:56:19;;;;;;;7.80;5.17;;;;;;;14.88;69.25;99443.81;5086731;28;20216;-62
2023/03/24 01:58:53;;;;;;;6.23;4.50;;;;;;;14.82;69.50;99440.09;5085307;28;20228;-65
2023/03/24 02:01:21;;;;;;;10.43;4.70;;;;;;;14.82;69.13;99439.28;5083286;28;20218;-62
2023/03/24 02:03:51;;;;;;;9.63;5.30;;;;;;;14.77;69.19;99428.41;5088430;28;20899;-63
2023/03/24 02:06:20;;;;;;;8.67;4.63;;;;;;;14.76;69.59;99424.06;5085155;28;20258;-64
2023/03/24 02:08:52;;;;;;;7.63;5.10;;;;;;;14.79;70.06;99410.31;5085352;28;20690;-61
2023/03/24 02:11:24;;;;;;;9.77;4.90;;;;;;;14.80;69.11;99399.44;5086662;28;20199;-62
2023/03/24 02:13:52;;;;;;;9.50;5.00;;;;;;;14.77;69.47;99396.38;5088495;28;20221;-62
2023/03/24 02:16:36;;;;;;;8.77;5.50;;;;;;;14.65;69.64;99388.13;5085256;28;20218;-63
2023/03/24 02:19:37;;;;;;;7.67;5.53;;;;;;;14.57;70.07;99386.47;5088181;28;20235;-64
2023/03/24 02:22:33;;;;;;;6.00;4.53;;;;;;;14.57;70.28;99373.13;5090376;28;20215;-64
2023/03/24 02:25:36;;;;;;;7.17;5.30;;;;;;;14.57;69.89;99372.28;5088405;28;20222;-64
2023/03/24 02:28:20;;;;;;;7.53;5.33;;;;;;;14.51;69.86;99365.09;5082451;28;20211;-64
2023/03/24 02:31:18;;;;;;;10.10;6.20;;;;;;;14.44;70.09;99357.06;5090242;28;20212;-65
2023/03/24 02:34:14;;;;;;;7.47;5.10;;;;;;;14.36;70.89;99372.38;5090392;28;20208;-64
2023/03/24 02:37:28;;;;;;;8.47;5.77;;;;;;;14.32;70.94;99358.63;5090172;28;20214;-63
2023/03/24 02:40:22;;;;;;;7.67;5.13;;;;;;;14.24;71.47;99364.97;5090515;28;20236;-63
2023/03/24 02:43:02;;;;;;;9.90;5.73;;;;;;;14.25;71.30;99363.91;5086934;28;20256;-62
2023/03/24 02:45:37;;;;;;;7.73;5.50;;;;;;;14.26;72.06;99372.75;5092607;28;20214;-65
2023/03/24 02:48:21;;;;;;;11.13;5.33;;;;;;;14.40;71.37;99369.16;5089918;28;20200;-65
2023/03/24 02:50:54;;;;;;;7.67;5.23;;;;;;;14.47;70.85;99374.50;5086927;28;20262;-62
2023/03/24 02:53:30;;;;;;;12.53;5.60;;;;;;;14.46;70.48;99381.69;5092914;28;20221;-63
2023/03/24 02:56:04;;;;;;;6.97;4.47;;;;;;;14.52;70.12;99386.22;5092812;28;20199;-64
2023/03/24 02:58:40;;;;;;;8.73;5.73;;;;;;;14.53;69.88;99371.84;5091198;28;20357;-64
2023/03/24 03:01:14;;;;;;;8.53;5.50;;;;;;;14.58;69.87;99380.09;5090688;27;20289;-64
2023/03/24 03:03:45;;;;;;;7.47;4.87;;;;;;;14.57;69.53;99370.44;5089472;28;20217;-64
2023/03/24 03:06:17;;;;;;;6.87;4.83;;;;;;;14.55;69.81;99363.66;5087554;28;20233;-63
2023/03/24 03:08:47;;;;;;;7.97;4.97;;;;;;;14.50;70.50;99372.28;5087574;28;20226;-62
2023/03/24 03:11:18;;;;;;;9.73;5.27;;;;;;;14.53;70.56;99365.69;5091443;28;21248;-65
2023/03/24 03:13:50;;;;;;;6.73;4.63;;;;;;;14.65;70.05;99364.94;5093996;28;20213;-63
2023/03/24 03:16:24;;;;;;;8.03;4.20;;;;;;;14.71;68.86;99360.63;5089949;28;20232;-63
2023/03/24 03:18:58;;;;;;;7.23;4.03;;;;;;;14.58;69.58;99353.41;5086537;28;20236;-64
2023/03/24 03:21:30;;;;;;;6.80;4.30;;;;;;;14.55;69.38;99353.81;5087944;28;20216;-62
2023/03/24 03:24:03;;;;;;;5.87;4.20;;;;;;;14.51;69.79;99352.56;5086929;28;20206;-65
2023/03/24 03:26:34;;;;;;;5.73;3.83;;;;;;;14.53;69.57;99353.19;5088978;28;20214;-63
2023/03/24 03:29:08;;;;;;;6.80;3.27;;;;;;;14.60;69.20;99367.34;5090635;28;20206;-64
2023/03/24 03:31:44;;;;;;;6.80;3.27;;;;;;;14.68;68.86;99364.53;5088613;28;20571;-64
2023/03/24 03:34:20;;;;;;;7.80;3.80;;;;;;;14.80;68.48;99370.09;5089342;28;20300;-65
2023/03/24 03:36:55;;;;;;;7.70;3.70;;;;;;;14.92;67.91;99367.66;5089213;28;20204;-64
2023/03/24 03:39:28;;;;;;;7.37;3.67;;;;;;;15.01;67.62;99359.25;5086628;28;20248;-63
2023/03/24 03:41:57;;;;;;;6.33;3.20;;;;;;;15.06;67.30;99367.47;5090681;28;20210;-64
2023/03/24 03:44:26;;;;;;;7.47;3.43;;;;;;;15.13;67.32;99369.34;5091651;27;20217;-62
2023/03/24 03:46:55;;;;;;;8.13;3.33;;;;;;;15.16;67.06;99361.72;5090189;27;20203;-63
2023/03/24 03:49:24;;;;;;;7.17;4.03;;;;;;;15.16;67.48;99377.75;5093072;28;20210;-64
2023/03/24 03:51:54;;;;;;;6.30;3.53;;;;;;;15.27;67.36;99376.34;5088845;28;20213;-64
2023/03/24 03:54:25;;;;;;;7.20;3.87;;;;;;;15.31;67.42;99388.22;5090776;28;20265;-63
2023/03/24 03:56:54;;;;;;;4.67;3.00;;;;;;;15.34;67.69;99382.50;5090616;28;20203;-65
2023/03/24 03:59:29;;;;;;;5.67;2.80;;;;;;;15.37;68.49;99393.59;5087663;28;20321;-63
2023/03/24 04:01:58;;;;;;;5.00;3.20;;;;;;;15.39;69.20;99409.44;5088508;28;20217;-64
2023/03/24 04:04:51;;;;;;;4.47;2.80;;;;;;;15.44;68.62;99413.13;5090715;28;20203;-63
2023/03/24 04:07:37;;;;;;;5.67;3.00;;;;;;;15.47;70.47;99403.06;5086618;28;20230;-64
2023/03/24 04:10:18;;;;;;;6.40;3.17;;;;;;;15.48;70.90;99402.81;5086311;27;20198;-64
2023/03/24 04:13:06;;;;;;;5.77;3.50;;;;;;;15.56;71.27;99415.22;5090397;28;20206;-66
2023/03/24 04:15:40;;;;;;;4.37;2.90;;;;;;;15.58;71.40;99410.47;5089352;27;20202;-63
2023/03/24 04:18:32;;;;;;;6.00;3.20;;;;;;;15.59;71.06;99412.09;5089933;28;20202;-63
2023/03/24 04:21:14;;;;;;;5.20;2.93;;;;;;;15.60;71.06;99419.09;5086179;28;20205;-64
2023/03/24 04:23:53;;;;;;;5.67;3.00;;;;;;;15.62;72.06;99427.75;5089268;28;20554;-64
2023/03/24 04:26:27;;;;;;;4.27;3.17;;;;;;;15.59;72.60;99425.47;5088659;28;20293;-63
2023/03/24 04:29:07;;;;;;;5.47;3.03;;;;;;;15.56;73.14;99425.91;5085992;27;20209;-63
2023/03/24 04:31:42;;;;;;;4.50;3.17;;;;;;;15.61;72.74;99434.09;5089395;27;20681;-62
2023/03/24 04:34:19;;;;;;;5.77;3.27;;;;;;;15.67;73.43;99434.09;5090905;28;20198;-64
2023/03/24 04:36:53;;;;;;;6.27;4.10;;;;;;;15.60;73.92;99432.47;5090702;28;20199;-64
2023/03/24 04:39:27;;;;;;;7.47;4.07;;;;;;;15.54;74.50;99430.63;5086328;28;20382;-64
2023/03/24 04:41:57;;;;;;;7.00;4.03;;;;;;;15.57;74.51;99433.69;5086227;28;20233;-62
2023/03/24 04:44:26;;;;;;;5.93;3.70;;;;;;;15.59;74.69;99436.16;5091823;27;20280;-63
2023/03/24 04:46:57;;;;;;;8.27;4.13;;;;;;;15.60;74.84;99427.13;5087420;28;20217;-64
2023/03/24 04:49:26;;;;;;;7.93;3.83;;;;;;;15.58;75.97;99434.50;5087340;28;20516;-62
2023/03/24 04:51:54;;;;;;;5.07;3.80;;;;;;;15.56;76.70;99426.72;5087628;28;20234;-63
2023/03/24 04:54:23;;;;;;;7.90;4.57;;;;;;;15.48;77.98;99434.88;5086120;28;21263;-64
2023/03/24 04:56:52;;;;;;;6.00;3.67;;;;;;;15.39;78.05;99431.59;5085109;28;20212;-65
2023/03/24 04:59:20;;;;;;;7.37;4.40;;;;;;;15.36;78.55;99413.31;5087940;28;20256;-62
2023/03/24 05:01:49;;;;;;;4.27;3.23;;;;;;;15.30;78.79;99406.09;5083658;28;20953;-62
2023/03/24 05:04:22;;;;;;;4.57;3.50;;;;;;;15.27;78.10;99406.53;5083015;28;20852;-63
2023/03/24 05:06:49;;;;;;;4.87;3.17;;;;;;;15.32;78.08;99392.53;5085877;28;20202;-63
2023/03/24 05:09:20;;;;;;;4.53;3.23;;;;;;;15.31;78.51;99380.22;5090196;28;20610;-64
2023/03/24 05:11:48;;;;;;;7.90;3.90;;;;;;;15.35;78.59;99379.63;5088596;27;20682;-63
2023/03/24 05:14:16;;;;;;;6.27;3.40;;;;;;;15.37;79.33;99390.09;5089391;28;20203;-64
2023/03/24 05:16:44;;;;;;;6.40;3.57;;;;;;;15.35;80.07;99382.28;5090341;28;20217;-62
2023/03/24 05:19:12;;;;;;;5.80;3.80;;;;;;;15.34;79.95;99369.13;5089096;28;20257;-63
2023/03/24 05:21:41;;;;;;;6.37;3.60;;;;;;;15.26;80.45;99362.16;5089975;28;20206;-65
2023/03/24 05:24:11;;;;;;;6.13;3.17;;;;;;;15.17;81.07;99368.72;5089347;28;20210;-64
2023/03/24 05:26:38;;;;;;;4.90;3.43;;;;;;;15.06;81.50;99369.31;5089877;28;20198;-64
2023/03/24 05:29:06;;;;;;;4.80;3.40;;;;;;;15.01;80.75;99374.47;5087266;28;20946;-64
2023/03/24 05:31:34;;;;;;;4.67;2.47;;;;;;;15.00;79.82;99383.47;5087317;28;20219;-65
2023/03/24 05:34:02;;;;;;;4.47;2.60;;;;;;;14.98;80.27;99381.00;5088258;28;20567;-65
2023/03/24 05:36:30;;;;;;;5.03;2.90;;;;;;;15.06;79.53;99383.47;5087462;28;20632;-63
2023/03/24 05:38:59;;;;;;;5.03;2.60;;;;;;;14.96;80.10;99376.88;5087102;28;20869;-62
2023/03/24 05:41:26;;;;;;;4.43;2.73;;;;;;;14.96;79.68;99380.38;5085974;28;20256;-62
2023/03/24 05:43:54;;;;;;;3.80;2.47;;;;;;;14.92;79.68;99381.00;5089646;27;20314;-64
2023/03/24 05:46:22;;;;;;;4.03;2.40;;;;;;;14.95;78.67;99392.09;5086283;28;20210;-64
2023/03/24 05:48:53;;;;;;;5.23;2.37;;;;;;;14.98;77.98;99385.53;5092565;28;20282;-62
2023/03/24 05:51:20;;;;;;;6.43;2.40;;;;;;;14.94;77.96;99392.31;5087923;28;20667;-65
2023/03/24 05:53:48;;;;;;;4.20;2.30;;;;;;;14.97;77.61;99390.03;5084553;28;20214;-63
2023/03/24 05:56:17;;;;;;;5.03;2.20;;;;;;;15.03;77.17;99385.75;5085648;28;20210;-64
2023/03/24 05:58:45;;;;;;;5.80;2.20;;;;;;;15.07;76.81;99403.81;5087518;28;20305;-64
2023/03/24 06:01:13;;;;;;;4.53;2.37;;;;;;;15.10;76.63;99415.97;5085275;28;20625;-65
2023/03/24 06:03:40;;;;;;;5.43;2.20;;;;;;;15.15;76.25;99420.66;5085089;28;20255;-63
2023/03/24 06:06:13;;;;;;;4.00;2.27;;;;;;;15.17;75.75;99422.13;5086034;28;20213;-65
2023/03/24 06:08:43;;;;;;;4.50;2.10;;;;;;;15.26;75.11;99425.41;5085503;28;20226;-67
2023/03/24 06:11:11;;;;;;;3.70;1.80;;;;;;;15.25;75.23;99421.09;5089404;28;21796;-65
2023/03/24 06:13:41;;;;;;;2.97;1.80;;;;;;;15.25;75.29;99418.44;5086156;28;20220;-66
2023/03/24 06:16:09;;;;;;;3.57;1.97;;;;;;;15.26;75.32;99418.22;5086672;28;20221;-63
2023/03/24 06:18:39;;;;;;;3.90;2.30;;;;;;;15.31;75.26;99428.28;5086422;28;20217;-63
2023/03/24 06:21:07;;;;;;;3.27;1.70;;;;;;;15.29;75.57;99425.84;5084785;28;20226;-64
2023/03/24 06:23:35;;;;;;;4.87;2.10;;;;;;;15.31;75.43;99414.94;5086484;28;20207;-63
2023/03/24 06:26:09;;;;;;;3.03;1.70;;;;;;;15.34;75.16;99418.03;5086656;28;20214;-65
2023/03/24 06:28:38;;;;;;;5.50;2.13;;;;;;;15.40;75.02;99417.22;5086447;28;20691;-64
2023/03/24 06:31:18;;;;;;;2.87;1.90;;;;;;;15.39;74.63;99428.13;5084528;28;21326;-63
2023/03/24 06:33:45;;;;;;;3.17;2.17;;;;;;;15.41;74.74;99434.88;5082844;28;20282;-60
2023/03/24 06:36:14;;;;;;;4.97;2.40;;;;;;;15.47;74.70;99432.44;5086489;28;20206;-60
2023/03/24 06:38:42;;;;;;;4.53;2.17;;;;;;;15.37;75.58;99427.50;5083389;28;20238;-62
2023/03/24 06:41:10;;;;;;;4.97;2.20;;;;;;;15.49;74.88;99431.19;5086311;28;20245;-60
2023/03/24 06:43:38;;;;;;;3.33;2.00;;;;;;;15.47;74.78;99432.44;5084073;28;20210;-61
2023/03/24 06:46:08;;;;;;;3.70;1.87;;;;;;;15.57;74.30;99441.69;5086016;28;20214;-60
2023/03/24 06:48:37;;;;;;;3.77;2.10;;;;;;;15.52;74.88;99440.66;5084990;28;20212;-61
2023/03/24 06:51:05;;;;;;;4.03;2.10;;;;;;;15.48;74.85;99450.13;5085323;28;20203;-61
2023/03/24 06:53:33;;;;;;;2.83;1.97;;;;;;;15.46;74.88;99458.34;5087526;28;20213;-60
2023/03/24 06:56:01;;;;;;;3.43;1.90;;;;;;;15.45;75.43;99451.34;5086442;28;21918;-59
2023/03/24 06:58:28;;;;;;;3.70;2.27;;;;;;;15.55;74.57;99461.66;5086908;28;20316;-60
2023/03/24 07:01:00;;;;;;;2.87;1.90;;;;;;;15.46;75.17;99462.84;5086306;28;20226;-59
2023/03/24 07:03:29;;;;;;;4.10;2.00;;;;;;;15.49;75.34;99449.06;5088259;28;20211;-58
2023/03/24 07:05:59;;;;;;;3.87;2.23;;;;;;;15.57;74.81;99464.94;5089054;28;20206;-58
2023/03/24 07:08:27;;;;;;;4.37;2.50;;;;;;;15.47;75.91;99470.66;5094679;27;20226;-62
2023/03/24 07:11:06;;;;;;;4.07;2.40;;;;;;;15.50;76.71;99469.41;5091112;27;20208;-62
2023/03/24 07:13:34;;;;;;;3.83;2.43;;;;;;;15.50;76.78;99475.59;5089332;28;20210;-62
2023/03/24 07:16:02;;;;;;;3.40;2.23;;;;;;;15.49;76.80;99476.59;5092062;28;20210;-61
2023/03/24 07:18:31;;;;;;;5.43;2.33;;;;;;;15.44;77.38;99484.41;5091891;28;20297;-62
2023/03/24 07:20:58;;;;;;;3.47;2.53;;;;;;;15.40;77.34;99481.31;5090295;28;20233;-62
2023/03/24 07:23:26;;;;;;;6.53;2.47;;;;;;;15.41;77.37;99474.94;5090746;28;20206;-60
2023/03/24 07:25:54;;;;;;;4.77;2.70;;;;;;;15.44;77.29;99466.53;5090359;28;20210;-61
2023/03/24 07:28:22;;;;;;;4.57;2.33;;;;;;;15.40;77.54;99470.63;5091641;28;20211;-59
2023/03/24 07:30:49;;;;;;;3.90;2.57;;;;;;;15.39;77.04;99468.97;5088060;28;20226;-60
2023/03/24 07:33:23;;;;;;;3.67;2.30;;;;;;;15.41;77.09;99466.94;5090124;28;20199;-60
2023/03/24 07:35:56;;;;;;;4.40;2.73;;;;;;;15.39;77.36;99482.34;5087904;28;20283;-60
2023/03/24 07:38:24;;;;;;;6.73;3.70;;;;;;;15.44;76.48;99479.06;5088685;28;20694;-61
2023/03/24 07:40:52;;;;;;;4.77;3.00;;;;;;;15.40;77.08;99470.63;5086244;28;20868;-60
2023/03/24 07:43:20;;;;;;;5.17;2.73;;;;;;;15.39;77.44;99474.31;5088176;28;20218;-59
2023/03/24 07:45:48;;;;;;;5.13;2.53;;;;;;;15.43;77.03;99480.09;5089479;28;20302;-60
2023/03/24 07:48:16;;;;;;;4.30;2.63;;;;;;;15.46;76.98;99484.22;5094135;28;20221;-60
2023/03/24 07:50:44;;;;;;;4.10;2.70;;;;;;;15.46;77.28;99474.34;5089260;28;20205;-60
2023/03/24 07:53:18;;;;;;;7.50;2.90;;;;;;;15.42;77.08;99487.28;5090118;28;20213;-61
2023/03/24 07:55:46;;;;;;;6.90;2.97;;;;;;;15.53;76.25;99479.69;5092790;28;20247;-61
2023/03/24 07:58:15;;;;;;;5.70;3.27;;;;;;;15.44;76.93;99482.56;5087601;28;20213;-61
2023/03/24 08:00:43;;;;;;;3.33;2.57;;;;;;;15.40;76.42;99489.31;5089588;28;20313;-62
2023/03/24 08:03:13;;;;;;;3.97;2.93;;;;;;;15.44;76.60;99490.59;5093438;28;20313;-62
2023/03/24 08:05:54;;;;;;;;;;;;;;;;;;;;;
2023/03/24 08:08:23;;;;;;;5.53;3.00;;;;;;;15.47;78.10;99497.38;5094939;27;20222;-61
2023/03/24 08:10:51;;;;;;;5.70;3.30;;;;;;;15.43;78.58;99496.94;5090622;28;20206;-62
2023/03/24 08:13:19;;;;;;;4.57;3.10;;;;;;;15.44;79.22;99493.25;5086669;28;20330;-63
2023/03/24 08:15:47;;;;;;;4.80;2.97;;;;;;;15.51;78.69;99493.25;5084104;28;20218;-58
2023/03/24 08:18:15;;;;;;;4.73;3.07;;;;;;;15.53;78.91;99495.72;5085509;28;20916;-60
2023/03/24 08:20:43;;;;;;;5.00;3.27;;;;;;;15.62;78.53;99495.38;5086537;28;20230;-58
2023/03/24 08:23:11;;;;;;;6.17;3.47;;;;;;;15.64;78.53;99504.00;5084982;27;20244;-59
2023/03/24 08:25:40;;;;;;;4.70;3.03;;;;;;;15.63;77.53;99499.69;5086872;28;20207;-60
2023/03/24 08:28:08;;;;;;;5.43;2.47;;;;;;;15.62;76.92;99500.72;5088782;28;20216;-59
2023/03/24 08:30:36;;;;;;;7.93;3.80;;;;;;;15.69;77.04;99501.53;5087102;28;20218;-59
2023/03/24 08:33:04;;;;;;;11.67;5.27;;;;;;;15.70;77.42;99494.34;5087148;28;20301;-60
2023/03/24 08:35:37;;;;;;;9.07;4.40;;;;;;;15.61;78.65;99507.06;5087268;28;20289;-61
2023/03/24 08:38:06;;;;;;;7.23;3.40;;;;;;;15.46;79.93;99501.06;5081593;28;20326;-60
2023/03/24 08:40:34;;;;;;;4.60;3.30;;;;;;;15.48;79.67;99498.22;5068864;28;20710;-59
2023/03/24 08:43:07;;;;;;;7.00;4.10;;;;;;;15.56;79.58;99495.38;5068515;28;20673;-60
2023/03/24 08:45:35;;;;;;;6.73;4.23;;;;;;;15.53;79.77;99493.06;5067175;28;20214;-60
2023/03/24 08:48:06;;;;;;;6.33;3.80;;;;;;;15.58;79.70;99493.28;5068857;28;20711;-59
2023/03/24 08:50:37;;;;;;;5.17;3.50;;;;;;;15.53;79.93;99501.06;5069328;28;20211;-60
2023/03/24 08:53:05;;;;;;;5.17;3.83;;;;;;;15.61;79.71;99499.06;5067663;28;20207;-60
2023/03/24 08:55:33;;;;;;;6.07;3.90;;;;;;;15.60;79.79;99494.75;5066887;28;20211;-59
2023/03/24 08:58:01;;;;;;;9.40;5.00;;;;;;;15.60;79.97;99496.59;5066492;28;20614;-60
2023/03/24 09:00:30;;;;;;;7.67;4.60;;;;;;;15.58;80.22;99501.31;5067442;28;20865;-60
2023/03/24 09:02:59;;;;;;;8.07;4.83;;;;;;;15.61;79.94;99499.06;5069531;28;21130;-60
2023/03/24 09:05:28;;;;;;;6.17;4.10;;;;;;;15.62;79.91;99499.88;5066771;28;20215;-60
2023/03/24 09:08:11;;;;;;;5.90;4.03;;;;;;;15.55;80.56;99504.41;5061473;28;20242;-60
2023/03/24 09:10:39;;;;;;;7.53;3.97;;;;;;;15.60;79.95;99496.59;5068198;28;20691;-60
2023/03/24 09:13:06;;;;;;;6.63;3.57;;;;;;;15.52;80.88;99499.44;5067784;28;20207;-60
2023/03/24 09:15:36;;;;;;;5.93;3.50;;;;;;;15.49;80.79;99508.66;5066398;28;20213;-59
2023/03/24 09:18:04;;;;;;;5.70;3.33;;;;;;;15.51;81.28;99503.13;5070225;28;20221;-60
2023/03/24 09:20:32;;;;;;;5.13;2.93;;;;;;;15.65;80.41;99516.34;5067481;28;20684;-60
2023/03/24 09:22:59;;;;;;;8.67;3.73;;;;;;;15.60;80.34;99512.63;5070166;28;20696;-59
2023/03/24 09:25:27;;;;;;;5.87;3.43;;;;;;;15.78;79.63;99505.66;5069180;28;20211;-60
2023/03/24 09:27:56;;;;;;;3.87;2.57;;;;;;;15.83;79.03;99504.22;5068652;28;20214;-59
2023/03/24 09:30:24;;;;;;;4.63;2.00;;;;;;;15.90;76.44;99524.59;5065780;28;20348;-61
2023/03/24 09:32:53;;;;;;;2.37;1.47;;;;;;;15.90;75.25;99516.56;5067619;28;20929;-60
2023/03/24 09:35:21;;;;;;;2.47;1.43;;;;;;;15.94;74.57;99516.97;5065298;28;20322;-61
2023/03/24 09:37:48;;;;;;;4.10;1.60;;;;;;;16.01;74.29;99521.28;5067045;28;20249;-61
2023/03/24 09:40:21;;;;;;;4.47;1.63;;;;;;;16.04;74.04;99525.41;5066640;28;20325;-60
2023/03/24 09:42:54;;;;;;;3.87;1.37;;;;;;;15.95;73.94;99531.97;5066772;28;20231;-60
2023/03/24 09:45:23;;;;;;;3.20;1.33;;;;;;;15.88;73.33;99531.97;5067773;28;20218;-61
2023/03/24 09:47:58;;;;;;;2.43;1.10;;;;;;;15.92;73.32;99530.53;5069656;28;20302;-59
2023/03/24 09:50:29;;;;;;;2.70;1.30;;;;;;;15.94;72.99;99536.50;5071917;28;20251;-60
2023/03/24 09:53:06;;;;;;;1.17;0.80;;;;;;;15.83;72.46;99530.97;5069472;28;20597;-59
2023/03/24 09:55:39;;;;;;;1.97;1.20;;;;;;;15.86;72.18;99536.69;5065830;28;20656;-59
2023/03/24 09:58:08;;;;;;;2.20;1.20;;;;;;;15.87;72.35;99533.00;5068861;28;20215;-59
2023/03/24 10:00:36;;;;;;;1.63;1.07;;;;;;;15.92;72.34;99533.19;5068787;28;20669;-60
2023/03/24 10:03:18;;;;;;;1.60;1.10;;;;;;;15.94;72.55;99536.50;5069245;28;20299;-59
2023/03/24 10:05:51;;;;;;;1.30;1.00;;;;;;;15.97;72.96;99541.44;5071156;28;20268;-59
2023/03/24 10:08:26;;;;;;;1.60;1.00;;;;;;;16.02;73.52;99543.50;5070904;28;20237;-60
2023/03/24 10:11:03;;;;;;;8.30;1.67;;;;;;;16.02;74.48;99544.31;5068997;28;20203;-59
2023/03/24 10:13:44;;;;;;;1.93;1.00;;;;;;;16.06;74.34;99555.44;5065122;28;20210;-60
2023/03/24 10:16:22;;;;;;;2.67;1.30;;;;;;;16.06;74.06;99550.91;5069481;28;20204;-59
2023/03/24 10:18:59;;;;;;;2.57;1.00;;;;;;;16.15;73.57;99555.03;5068088;28;20199;-60
2023/03/24 10:21:32;;;;;;;1.73;1.10;;;;;;;16.18;73.57;99553.81;5068424;28;20203;-61
2023/03/24 10:24:06;;;;;;;1.63;0.90;;;;;;;16.24;72.38;99554.81;5068827;28;20293;-62
2023/03/24 10:26:44;;;;;;;2.13;1.07;;;;;;;16.19;72.99;99561.59;5068969;28;20210;-61
2023/03/24 10:29:22;;;;;;;1.80;0.90;;;;;;;16.11;73.45;99556.44;5066758;28;20211;-60
2023/03/24 10:31:56;;;;;;;3.10;1.30;;;;;;;16.11;73.91;99564.47;5067105;28;20217;-61
2023/03/24 10:34:28;;;;;;;1.53;1.10;;;;;;;16.10;74.85;99578.88;5067758;28;20613;-60
2023/03/24 10:36:58;;;;;;;1.47;1.00;;;;;;;16.05;76.15;99596.56;5068028;28;20203;-60
2023/03/24 10:39:26;;;;;;;3.17;1.00;;;;;;;15.94;75.02;99600.66;5065913;28;20289;-62
2023/03/24 10:42:15;;;;;;;1.23;0.60;;;;;;;15.79;73.15;99616.88;5071470;28;20331;-62
2023/03/24 10:44:46;;;;;;;0.90;0.60;;;;;;;15.73;72.13;99631.06;5070623;28;20565;-62
2023/03/24 10:47:18;;;;;;;1.90;0.60;;;;;;;15.68;71.35;99627.34;5069360;28;20230;-62
2023/03/24 10:49:55;;;;;;;2.03;0.50;;;;;;;15.65;70.32;99627.75;5067696;28;20294;-64
2023/03/24 10:52:24;;;;;;;0.70;0.47;;;;;;;15.67;70.75;99631.03;5073633;28;21720;-62
2023/03/24 10:54:56;;;;;;;1.40;0.40;;;;;;;15.75;71.23;99641.53;5069320;28;20205;-63
2023/03/24 10:57:27;;;;;;;1.73;0.60;;;;;;;15.80;71.49;99641.78;5063104;28;20268;-64
2023/03/24 10:59:58;;;;;;;1.43;0.70;;;;;;;15.76;71.50;99651.22;5074087;28;20208;-62
2023/03/24 11:02:29;;;;;;;1.40;0.60;;;;;;;15.83;71.32;99652.06;5074128;28;20227;-60
2023/03/24 11:05:02;;;;;;;0.87;0.60;;;;;;;15.94;70.79;99654.13;5072314;28;20210;-61
2023/03/24 11:07:34;;;;;;;1.60;0.63;;;;;;;16.11;69.98;99644.72;5070919;28;20964;-60
2023/03/24 11:10:14;;;;;;;1.93;0.53;;;;;;;16.45;69.14;99645.53;5074165;28;20207;-60
2023/03/24 11:12:43;;;;;;;3.50;0.97;;;;;;;16.54;68.18;99638.97;5072661;28;20332;-59
2023/03/24 11:15:17;;;;;;;1.67;0.53;;;;;;;16.61;67.19;99641.66;5071040;28;20282;-60
2023/03/24 11:17:53;;;;;;;1.90;0.60;;;;;;;16.64;67.72;99634.03;5069331;28;20203;-61
2023/03/24 11:20:29;;;;;;;2.07;0.90;;;;;;;16.61;66.96;99629.13;5070896;28;20215;-59
2023/03/24 11:23:01;;;;;;;1.83;0.47;;;;;;;16.52;66.30;99651.75;5067437;28;20219;-62
2023/03/24 11:25:31;;;;;;;1.77;0.57;;;;;;;16.47;65.83;99636.28;5071663;28;20238;-58
2023/03/24 11:28:03;;;;;;;1.40;0.50;;;;;;;16.47;64.67;99627.44;5070406;28;20239;-58
2023/03/24 11:30:35;;;;;;;2.27;0.87;;;;;;;16.40;64.42;99629.28;5062170;28;20239;-59
2023/03/24 11:33:04;;;;;;;2.53;0.70;;;;;;;16.43;63.34;99631.56;5071046;28;20199;-60
2023/03/24 11:35:33;;;;;;;1.80;0.50;;;;;;;16.43;62.49;99635.06;5070855;28;20211;-60
2023/03/24 11:38:15;;;;;;;4.73;0.80;;;;;;;16.43;61.67;99648.44;5068385;28;20329;-60
2023/03/24 11:40:53;;;;;;;3.80;0.73;;;;;;;16.37;61.53;99653.78;5070320;28;20809;-59
2023/03/24 11:43:21;;;;;;;5.47;1.13;;;;;;;16.39;61.83;99641.03;5070254;28;20234;-61
2023/03/24 11:45:58;;;;;;;1.77;0.40;;;;;;;16.34;62.18;99656.88;5070503;28;20214;-59
2023/03/24 11:48:32;;;;;;;4.63;0.80;;;;;;;16.32;61.63;99646.38;5062515;28;20294;-60
2023/03/24 11:51:03;;;;;;;2.90;0.80;;;;;;;16.40;60.98;99642.69;5065705;28;20245;-62
2023/03/24 11:53:42;;;;;;;3.17;0.50;;;;;;;16.45;60.64;99656.25;5066776;28;20214;-60
2023/03/24 11:56:17;;;;;;;2.93;1.00;;;;;;;16.53;60.75;99664.91;5070884;28;20203;-61